Terminal Aerodrome Forecast
Issued by NWS

Home | Current Version | Previous Version | Text Only | Print | Product List | Glossary On
Versions: 1 2 3 4 5 6 7 8 9 10 11 12 13 14
749
FTUS44 KLIX 140522
TAFMCB
TAF
KMCB 140522Z 1406/1506 VRB04KT P6SM FEW250
     FM141800 16007KT P6SM SCT080 BKN250
     FM150500 15008KT P6SM OVC020=

USA.gov is the U.S. government's official web portal to all federal, state and local government web resources and services.